Time;durP1;ratioP1;P1;durP2;ratioP2;P2;SDS_P1;SDS_P2;PMS_P1;PMS_P2;Temp;Humidity;BMP_temperature;BMP_pressure;BME280_temperature;BME280_humidity;BME280_pressure;Samples;Min_cycle;Max_cycle;Signal;HPM_P1;HPM_P2
2021/06/30 00:02:22;;;;;;;11.93;6.50;;;17.50;99.90;;;;;;4976923;28;20738;-75
2021/06/30 00:04:49;;;;;;;11.60;6.22;;;17.50;99.90;;;;;;4973964;28;20201;-75
2021/06/30 00:07:16;;;;;;;6.65;5.75;;;17.60;99.90;;;;;;4974144;28;20223;-75
2021/06/30 00:09:43;;;;;;;8.63;5.95;;;17.70;99.90;;;;;;4981458;28;20298;-75
2021/06/30 00:12:12;;;;;;;6.18;4.40;;;17.80;99.90;;;;;;4978334;28;20227;-75
2021/06/30 00:14:40;;;;;;;3.63;3.15;;;17.90;99.90;;;;;;4976053;28;20227;-75
2021/06/30 00:17:08;;;;;;;4.80;3.53;;;18.00;99.90;;;;;;4971344;28;20228;-75
2021/06/30 00:27:55;;;;;;;5.25;3.55;;;18.00;99.90;;;;;;4975993;28;20291;-76
2021/06/30 00:30:22;;;;;;;12.40;3.67;;;18.00;99.90;;;;;;4973656;28;20204;-76
2021/06/30 00:32:49;;;;;;;6.55;3.58;;;18.00;99.90;;;;;;4970478;28;20259;-75
2021/06/30 00:35:17;;;;;;;5.07;3.97;;;18.00;99.90;;;;;;4977002;28;20224;-76
2021/06/30 00:37:51;;;;;;;7.75;3.67;;;18.10;99.90;;;;;;4969299;28;20231;-76
2021/06/30 00:40:19;;;;;;;6.00;4.03;;;18.10;99.90;;;;;;4981761;28;20204;-76
2021/06/30 00:42:46;;;;;;;4.07;3.70;;;18.10;99.90;;;;;;4969708;28;20209;-75
2021/06/30 00:50:42;;;;;;;7.50;4.28;;;18.20;99.90;;;;;;4974640;28;20208;-77
2021/06/30 00:53:09;;;;;;;6.63;5.00;;;18.20;99.90;;;;;;4975843;28;20232;-77
2021/06/30 00:55:38;;;;;;;8.43;5.70;;;18.30;99.90;;;;;;4970485;28;20241;-76
2021/06/30 00:58:05;;;;;;;8.48;5.72;;;18.20;99.90;;;;;;4974248;28;20207;-76
2021/06/30 01:00:33;;;;;;;8.60;6.28;;;18.20;99.90;;;;;;4977657;28;20208;-76
2021/06/30 01:08:24;;;;;;;6.50;5.90;;;18.30;99.90;;;;;;4969489;28;20215;-76
2021/06/30 01:10:50;;;;;;;7.20;6.47;;;18.30;99.90;;;;;;4969744;28;20200;-76
2021/06/30 01:13:17;;;;;;;8.75;6.72;;;18.30;99.90;;;;;;4969044;28;20205;-76
2021/06/30 01:16:04;;;;;;;6.88;6.18;;;18.30;99.90;;;;;;4970489;28;20235;-79
2021/06/30 01:18:33;;;;;;;7.38;6.70;;;18.40;99.90;;;;;;4978865;28;20268;-78
2021/06/30 01:23:59;;;;;;;7.50;6.07;;;18.40;99.90;;;;;;4975921;28;20213;-79
2021/06/30 01:26:26;;;;;;;5.32;4.72;;;18.40;99.90;;;;;;4973379;28;20200;-79
2021/06/30 01:28:53;;;;;;;5.47;4.93;;;18.50;99.90;;;;;;4976970;28;20200;-78
2021/06/30 01:31:20;;;;;;;4.95;4.53;;;18.50;99.90;;;;;;4975813;28;20197;-78
2021/06/30 01:33:47;;;;;;;5.47;4.95;;;18.50;99.90;;;;;;4983525;28;20203;-79
2021/06/30 01:36:15;;;;;;;7.35;4.88;;;18.50;99.90;;;;;;4972844;28;20311;-79
2021/06/30 01:44:05;;;;;;;8.07;4.50;;;18.40;99.90;;;;;;4974612;28;20223;-79
2021/06/30 01:46:33;;;;;;;5.45;4.55;;;18.50;99.90;;;;;;4983767;28;20227;-79
2021/06/30 01:54:22;;;;;;;6.88;5.45;;;18.50;99.90;;;;;;4973491;28;20247;-79
2021/06/30 01:56:51;;;;;;;7.57;6.20;;;18.50;99.90;;;;;;4978693;28;20232;-79
2021/06/30 01:59:18;;;;;;;8.43;6.07;;;18.40;99.90;;;;;;4973469;28;20228;-79
2021/06/30 02:01:45;;;;;;;7.82;6.20;;;18.40;99.90;;;;;;4978623;28;20212;-78
2021/06/30 02:04:12;;;;;;;6.15;5.28;;;18.30;99.90;;;;;;4971133;28;20279;-76
2021/06/30 02:06:40;;;;;;;9.20;5.38;;;18.30;99.90;;;;;;4973019;28;20563;-76
2021/06/30 02:09:09;;;;;;;7.47;5.95;;;18.30;99.90;;;;;;4980072;28;20203;-77
2021/06/30 02:11:37;;;;;;;8.90;5.60;;;18.30;99.90;;;;;;4972845;28;20204;-76
2021/06/30 02:14:06;;;;;;;6.55;5.85;;;18.30;99.90;;;;;;4972906;28;20208;-77
2021/06/30 02:16:33;;;;;;;8.85;6.07;;;18.30;99.90;;;;;;4969205;28;20204;-77
2021/06/30 02:19:04;;;;;;;7.97;6.47;;;18.20;99.90;;;;;;4974242;28;20268;-77
2021/06/30 02:21:31;;;;;;;11.68;7.38;;;18.20;99.90;;;;;;4969998;28;20648;-77
2021/06/30 02:23:58;;;;;;;6.95;5.95;;;18.20;99.90;;;;;;4975906;28;20208;-77
2021/06/30 02:26:25;;;;;;;7.65;6.45;;;18.10;99.90;;;;;;4969822;28;20208;-77
2021/06/30 02:28:52;;;;;;;8.40;6.13;;;18.20;99.90;;;;;;4969315;28;20216;-77
2021/06/30 02:31:20;;;;;;;7.07;6.25;;;18.20;99.90;;;;;;4975173;28;20197;-77
2021/06/30 02:33:47;;;;;;;9.18;6.75;;;18.20;99.90;;;;;;4980701;28;20208;-76
2021/06/30 02:36:14;;;;;;;7.43;6.03;;;18.30;99.90;;;;;;4973866;28;20232;-76
2021/06/30 02:38:41;;;;;;;7.28;6.50;;;18.30;99.90;;;;;;4975212;28;20204;-76
2021/06/30 02:41:08;;;;;;;7.35;6.57;;;18.30;99.90;;;;;;4975251;28;20260;-77
2021/06/30 02:43:35;;;;;;;8.38;6.97;;;18.30;99.90;;;;;;4972583;28;20239;-76
2021/06/30 02:46:03;;;;;;;8.82;6.82;;;18.30;99.90;;;;;;4978539;28;20227;-76
2021/06/30 02:48:31;;;;;;;9.13;6.90;;;18.30;99.90;;;;;;4976800;28;20228;-76
2021/06/30 02:50:59;;;;;;;8.57;6.20;;;18.20;99.90;;;;;;4972515;28;20200;-76
2021/06/30 02:53:26;;;;;;;7.32;6.28;;;18.20;99.90;;;;;;4972381;28;20224;-76
2021/06/30 02:55:54;;;;;;;7.13;6.15;;;18.20;99.90;;;;;;4980641;28;20236;-76
2021/06/30 02:58:21;;;;;;;10.32;6.00;;;18.20;99.90;;;;;;4976732;28;20204;-76
2021/06/30 03:00:48;;;;;;;10.75;6.85;;;18.20;99.90;;;;;;4971950;28;20865;-76
2021/06/30 03:03:15;;;;;;;8.60;6.22;;;18.20;99.90;;;;;;4977661;28;20208;-76
2021/06/30 03:05:43;;;;;;;9.98;7.20;;;18.20;99.90;;;;;;4971792;28;20209;-76
2021/06/30 03:08:10;;;;;;;8.82;6.78;;;18.20;99.90;;;;;;4988247;28;20208;-76
2021/06/30 03:10:37;;;;;;;8.02;6.65;;;18.10;99.90;;;;;;4976494;28;20236;-76
2021/06/30 03:13:04;;;;;;;9.38;7.22;;;18.10;99.90;;;;;;4978235;28;20203;-76
2021/06/30 03:15:31;;;;;;;10.40;7.70;;;18.10;99.90;;;;;;4983136;28;20471;-76
2021/06/30 03:17:59;;;;;;;8.40;7.38;;;18.20;99.90;;;;;;4977582;28;20201;-76
2021/06/30 03:20:26;;;;;;;9.52;7.32;;;18.10;99.90;;;;;;4970974;28;20200;-76
2021/06/30 03:22:54;;;;;;;9.63;6.70;;;18.10;99.90;;;;;;4973965;28;20200;-76
2021/06/30 03:25:21;;;;;;;10.40;7.18;;;18.10;99.90;;;;;;4976227;28;20616;-76
2021/06/30 03:27:48;;;;;;;10.48;7.97;;;18.10;99.90;;;;;;4981571;28;20196;-76
2021/06/30 03:30:15;;;;;;;13.60;7.93;;;18.00;99.90;;;;;;4976388;28;20243;-76
2021/06/30 03:32:42;;;;;;;12.38;9.23;;;18.10;99.90;;;;;;4982602;28;20214;-76
2021/06/30 03:35:09;;;;;;;19.77;8.63;;;18.00;99.90;;;;;;4971727;28;20220;-76
2021/06/30 03:37:36;;;;;;;12.73;8.73;;;18.10;99.90;;;;;;4971948;28;20200;-76
2021/06/30 03:40:06;;;;;;;10.98;8.32;;;18.10;99.90;;;;;;4971128;28;20574;-76
2021/06/30 03:42:34;;;;;;;12.85;8.73;;;18.10;99.90;;;;;;4974672;28;20235;-77
2021/06/30 03:45:00;;;;;;;15.55;8.27;;;18.10;99.90;;;;;;4977419;28;20228;-77
2021/06/30 03:47:27;;;;;;;12.90;8.95;;;18.10;99.90;;;;;;4976982;28;20204;-76
2021/06/30 03:49:55;;;;;;;10.90;8.60;;;18.10;99.90;;;;;;4976510;28;20233;-76
2021/06/30 03:52:22;;;;;;;15.35;9.73;;;18.20;99.90;;;;;;4977611;28;20232;-77
2021/06/30 03:54:49;;;;;;;13.07;9.50;;;18.20;99.90;;;;;;4972204;28;20255;-77
2021/06/30 03:57:17;;;;;;;11.60;8.50;;;18.10;99.90;;;;;;4977252;28;20208;-76
2021/06/30 03:59:44;;;;;;;12.73;8.75;;;18.10;99.90;;;;;;4971415;28;20275;-77
2021/06/30 04:02:11;;;;;;;14.65;9.13;;;18.10;99.90;;;;;;4971376;28;20204;-77
2021/06/30 04:04:38;;;;;;;11.65;10.02;;;18.10;99.90;;;;;;4974386;28;20201;-77
2021/06/30 04:07:05;;;;;;;18.17;9.18;;;18.00;99.90;;;;;;4975706;28;20248;-75
2021/06/30 04:09:33;;;;;;;14.45;8.95;;;18.00;99.90;;;;;;4979509;28;20208;-75
2021/06/30 04:12:00;;;;;;;12.48;8.95;;;18.00;99.90;;;;;;4971692;28;20204;-75
2021/06/30 04:14:28;;;;;;;12.15;9.00;;;18.00;99.90;;;;;;4975318;28;20196;-75
2021/06/30 04:16:55;;;;;;;10.43;8.23;;;17.90;99.90;;;;;;4976075;28;20290;-75
2021/06/30 04:19:22;;;;;;;13.07;8.32;;;18.00;99.90;;;;;;4974898;28;20235;-75
2021/06/30 04:21:49;;;;;;;11.15;8.18;;;17.90;99.90;;;;;;4977665;28;20637;-75
2021/06/30 04:24:16;;;;;;;11.27;8.77;;;17.90;99.90;;;;;;4974142;28;20213;-75
2021/06/30 04:26:43;;;;;;;11.77;7.72;;;18.00;99.90;;;;;;4970638;28;20215;-75
2021/06/30 04:29:10;;;;;;;11.32;8.43;;;18.00;99.90;;;;;;4970629;28;20204;-75
2021/06/30 04:31:39;;;;;;;11.85;8.32;;;18.00;99.90;;;;;;4976084;28;20201;-75
2021/06/30 04:34:06;;;;;;;14.95;8.60;;;18.00;99.90;;;;;;4970015;28;20201;-75
2021/06/30 04:36:33;;;;;;;11.10;7.63;;;18.00;99.90;;;;;;4978011;28;20311;-75
2021/06/30 04:39:00;;;;;;;8.90;6.63;;;18.10;99.90;;;;;;4978439;28;20260;-75
2021/06/30 04:41:27;;;;;;;10.85;7.25;;;18.10;99.90;;;;;;4970424;28;20200;-75
2021/06/30 04:43:54;;;;;;;11.60;7.45;;;18.20;99.90;;;;;;4970395;28;20224;-75
2021/06/30 04:46:21;;;;;;;11.52;7.28;;;18.10;99.90;;;;;;4970223;28;20199;-74
2021/06/30 04:48:55;;;;;;;11.60;6.65;;;18.10;99.90;;;;;;4970310;28;20196;-74
2021/06/30 04:51:23;;;;;;;10.07;7.00;;;18.20;99.90;;;;;;4974551;28;20232;-75
2021/06/30 04:53:51;;;;;;;13.00;6.78;;;18.20;99.90;;;;;;4973415;28;20599;-74
2021/06/30 04:56:26;;;;;;;8.40;5.95;;;18.20;99.90;;;;;;4970342;28;20232;-74
2021/06/30 04:58:54;;;;;;;5.70;5.18;;;18.10;99.90;;;;;;4975027;28;20208;-74
2021/06/30 05:01:21;;;;;;;8.10;5.32;;;18.10;99.90;;;;;;4975312;28;20263;-75
2021/06/30 05:03:48;;;;;;;7.03;5.57;;;18.10;99.90;;;;;;4973786;28;20205;-75
2021/06/30 05:06:16;;;;;;;7.47;5.20;;;18.20;99.90;;;;;;4979338;28;20235;-74
2021/06/30 05:08:43;;;;;;;7.05;4.82;;;18.20;99.90;;;;;;4973781;28;20211;-74
2021/06/30 05:11:10;;;;;;;6.65;5.40;;;18.30;99.90;;;;;;4977517;28;20282;-74
2021/06/30 05:13:37;;;;;;;8.40;5.57;;;18.30;99.90;;;;;;4971044;28;20209;-74
2021/06/30 05:16:04;;;;;;;9.73;4.95;;;18.30;99.90;;;;;;4971897;28;20224;-75
2021/06/30 05:18:31;;;;;;;8.23;4.90;;;18.30;99.90;;;;;;4969268;28;20231;-74
2021/06/30 05:20:58;;;;;;;8.57;5.35;;;18.30;99.90;;;;;;4969257;28;20204;-74
2021/06/30 05:23:27;;;;;;;8.10;5.03;;;18.30;99.90;;;;;;4972776;28;20199;-75
2021/06/30 05:25:53;;;;;;;7.07;4.40;;;18.30;99.90;;;;;;4973785;28;20204;-74
2021/06/30 05:28:20;;;;;;;6.95;4.65;;;18.40;99.90;;;;;;4969177;28;20622;-75
2021/06/30 05:30:47;;;;;;;5.47;4.15;;;18.50;99.90;;;;;;4974455;28;20204;-74
2021/06/30 05:33:14;;;;;;;6.15;3.65;;;18.50;99.90;;;;;;4973335;28;20200;-74
2021/06/30 05:35:41;;;;;;;5.10;4.10;;;18.60;99.90;;;;;;4969387;28;20232;-74
2021/06/30 05:38:10;;;;;;;8.70;4.13;;;18.60;99.90;;;;;;4977273;28;20208;-74
2021/06/30 05:40:39;;;;;;;5.35;4.20;;;18.60;99.90;;;;;;4978040;28;20232;-75
2021/06/30 05:43:07;;;;;;;5.35;3.85;;;18.70;99.90;;;;;;4969768;28;20614;-76
2021/06/30 05:45:34;;;;;;;5.53;3.22;;;18.60;99.90;;;;;;4973278;28;20204;-75
2021/06/30 05:48:01;;;;;;;7.82;3.88;;;18.70;99.90;;;;;;4968768;28;20196;-75
2021/06/30 05:50:28;;;;;;;7.18;3.63;;;18.80;99.90;;;;;;4972422;28;20205;-76
2021/06/30 05:52:54;;;;;;;4.15;3.60;;;18.80;99.90;;;;;;4977175;28;20236;-74
2021/06/30 05:55:22;;;;;;;4.45;3.42;;;18.90;99.90;;;;;;4975365;28;20227;-74
2021/06/30 05:57:50;;;;;;;5.78;3.88;;;18.90;99.90;;;;;;4969744;28;20228;-74
2021/06/30 06:00:20;;;;;;;5.35;3.00;;;19.00;99.90;;;;;;4974889;28;20218;-74
2021/06/30 06:02:47;;;;;;;4.95;3.67;;;19.00;99.90;;;;;;4975718;28;20207;-75
2021/06/30 06:05:15;;;;;;;6.90;4.20;;;19.00;99.90;;;;;;4969520;28;20211;-74
2021/06/30 06:07:42;;;;;;;4.38;3.60;;;19.00;99.90;;;;;;4968610;28;20208;-74
2021/06/30 06:10:11;;;;;;;5.30;3.85;;;19.00;99.90;;;;;;4978368;28;20235;-74
2021/06/30 06:12:39;;;;;;;7.20;3.65;;;19.00;99.90;;;;;;4974322;28;20204;-74
2021/06/30 06:15:10;;;;;;;5.90;3.40;;;19.10;99.90;;;;;;4973442;28;20201;-74
2021/06/30 06:17:37;;;;;;;7.13;4.50;;;19.10;99.90;;;;;;4968231;28;20209;-74
2021/06/30 06:20:06;;;;;;;4.53;4.13;;;19.10;99.90;;;;;;4977192;28;20197;-73
2021/06/30 06:22:33;;;;;;;6.00;3.92;;;19.00;99.90;;;;;;4978009;28;20266;-73
2021/06/30 06:24:59;;;;;;;7.88;4.63;;;19.00;99.90;;;;;;4972379;28;20231;-73
2021/06/30 06:27:27;;;;;;;6.30;4.55;;;18.90;99.90;;;;;;4972509;28;20212;-73
2021/06/30 06:29:54;;;;;;;5.13;4.13;;;18.90;99.90;;;;;;4968836;28;20204;-73
2021/06/30 06:32:22;;;;;;;5.90;3.78;;;18.90;99.90;;;;;;4972942;28;20207;-73
2021/06/30 06:34:49;;;;;;;3.95;3.60;;;18.80;99.90;;;;;;4969083;28;20204;-74
2021/06/30 06:37:16;;;;;;;6.20;4.03;;;18.90;99.90;;;;;;4967370;28;20224;-74
2021/06/30 06:39:44;;;;;;;5.30;4.85;;;19.00;99.90;;;;;;4975354;28;20272;-74
2021/06/30 06:42:12;;;;;;;7.18;4.45;;;18.90;99.90;;;;;;4970675;28;20200;-74
2021/06/30 06:44:41;;;;;;;5.10;4.60;;;19.00;99.90;;;;;;4968572;28;20300;-76
2021/06/30 06:47:09;;;;;;;4.55;3.80;;;19.00;99.90;;;;;;4973694;28;20208;-76
2021/06/30 06:49:37;;;;;;;4.80;3.95;;;19.10;99.90;;;;;;4973820;28;20239;-76
2021/06/30 06:52:05;;;;;;;8.45;4.22;;;19.10;99.90;;;;;;4972076;28;20236;-76
2021/06/30 06:54:32;;;;;;;8.43;4.20;;;19.00;99.90;;;;;;4968156;28;20205;-76
2021/06/30 06:56:59;;;;;;;6.47;5.82;;;19.00;99.90;;;;;;4967539;28;20722;-76
2021/06/30 06:59:26;;;;;;;11.75;7.50;;;19.00;99.90;;;;;;4977109;28;20296;-76
2021/06/30 07:01:55;;;;;;;8.98;7.00;;;19.00;99.90;;;;;;4969079;28;20220;-76
2021/06/30 07:04:22;;;;;;;10.80;7.10;;;19.00;99.90;;;;;;4972023;28;20241;-76
2021/06/30 07:06:50;;;;;;;10.23;7.20;;;19.10;99.90;;;;;;4977308;28;20199;-76
2021/06/30 07:09:17;;;;;;;12.70;7.32;;;19.10;99.90;;;;;;4968336;28;20200;-76
2021/06/30 07:11:44;;;;;;;9.50;6.38;;;19.00;99.90;;;;;;4972390;28;20266;-76
2021/06/30 07:14:11;;;;;;;10.77;7.38;;;19.00;99.90;;;;;;4971457;28;20201;-76
2021/06/30 07:16:38;;;;;;;7.38;6.05;;;19.00;99.90;;;;;;4969645;28;20231;-76
2021/06/30 07:19:05;;;;;;;9.63;6.10;;;19.00;99.90;;;;;;4971166;28;20192;-76
2021/06/30 07:21:33;;;;;;;11.77;6.65;;;19.10;99.90;;;;;;4967941;28;20209;-76
2021/06/30 07:24:01;;;;;;;6.95;5.32;;;19.10;99.90;;;;;;4975115;28;20196;-77
2021/06/30 07:26:28;;;;;;;7.20;5.32;;;19.10;99.90;;;;;;4972360;28;20668;-76
2021/06/30 07:28:55;;;;;;;13.20;6.35;;;19.20;99.90;;;;;;4971711;28;20200;-76
2021/06/30 07:31:23;;;;;;;8.02;6.40;;;19.30;99.90;;;;;;4972571;28;20201;-76
2021/06/30 07:33:50;;;;;;;8.05;5.30;;;19.30;99.90;;;;;;4973681;28;20208;-76
2021/06/30 07:36:17;;;;;;;7.82;5.28;;;19.40;99.90;;;;;;4975473;28;20256;-76
2021/06/30 07:38:44;;;;;;;7.30;4.15;;;19.40;99.90;;;;;;4971827;28;20209;-76
2021/06/30 07:41:13;;;;;;;7.43;5.22;;;19.40;99.90;;;;;;4974226;28;20204;-76
2021/06/30 07:43:40;;;;;;;6.65;5.28;;;19.50;99.90;;;;;;4971331;28;20660;-76
2021/06/30 07:46:07;;;;;;;8.23;6.07;;;19.50;99.90;;;;;;4975435;28;20266;-76
2021/06/30 07:48:34;;;;;;;6.10;5.13;;;19.60;99.90;;;;;;4971342;28;20268;-76
2021/06/30 07:51:01;;;;;;;7.22;5.65;;;19.50;99.90;;;;;;4970750;28;20232;-76
2021/06/30 07:53:27;;;;;;;10.68;6.35;;;19.50;99.90;;;;;;4970394;28;20256;-76
2021/06/30 07:55:54;;;;;;;7.68;6.25;;;19.50;99.90;;;;;;4976597;28;20231;-76
2021/06/30 07:58:23;;;;;;;9.90;6.22;;;19.40;99.90;;;;;;4977744;28;20208;-76
2021/06/30 08:00:50;;;;;;;12.80;8.57;;;19.30;99.90;;;;;;4978133;28;20283;-76
2021/06/30 08:03:17;;;;;;;12.07;7.85;;;19.30;99.90;;;;;;4972961;28;20212;-76
2021/06/30 08:05:44;;;;;;;10.48;8.00;;;19.30;99.90;;;;;;4970833;28;20209;-76
2021/06/30 08:08:11;;;;;;;7.95;6.88;;;19.30;99.90;;;;;;4970926;28;20204;-76
2021/06/30 08:10:38;;;;;;;9.43;6.90;;;19.40;99.90;;;;;;4969724;28;20204;-76
2021/06/30 08:13:05;;;;;;;8.88;6.38;;;19.40;99.90;;;;;;4970522;28;20204;-76
2021/06/30 08:15:33;;;;;;;8.25;6.72;;;19.30;99.90;;;;;;4971350;28;20212;-76
2021/06/30 08:18:00;;;;;;;11.52;7.55;;;19.20;99.90;;;;;;4970929;28;20252;-76
2021/06/30 08:20:27;;;;;;;13.75;7.93;;;19.10;99.90;;;;;;4970533;28;20229;-76
2021/06/30 08:22:54;;;;;;;13.45;8.20;;;19.20;99.90;;;;;;4971074;28;20212;-76
2021/06/30 08:25:23;;;;;;;7.47;6.03;;;19.20;99.90;;;;;;4972446;28;20200;-76
2021/06/30 08:27:50;;;;;;;7.78;5.72;;;19.20;99.90;;;;;;4975312;28;20255;-76
2021/06/30 08:30:18;;;;;;;7.85;5.80;;;19.10;99.90;;;;;;4970289;28;20217;-76
2021/06/30 08:32:47;;;;;;;4.85;4.35;;;19.20;99.90;;;;;;4970461;28;20671;-76
2021/06/30 08:35:15;;;;;;;4.80;4.40;;;19.20;99.90;;;;;;4969896;28;20233;-76
2021/06/30 08:37:44;;;;;;;7.20;5.32;;;19.30;99.90;;;;;;4975107;28;20283;-76
2021/06/30 08:40:12;;;;;;;9.20;7.60;;;19.20;99.90;;;;;;4970045;28;20251;-76
2021/06/30 08:42:42;;;;;;;9.80;7.05;;;19.10;99.90;;;;;;4975744;28;20224;-76
2021/06/30 08:45:10;;;;;;;5.25;4.75;;;18.90;99.90;;;;;;4970776;28;20663;-76
2021/06/30 08:47:39;;;;;;;5.75;5.25;;;18.80;99.90;;;;;;4973954;28;20463;-76
2021/06/30 08:50:10;;;;;;;5.55;4.80;;;18.70;99.90;;;;;;4969794;28;20201;-76
2021/06/30 08:52:37;;;;;;;4.60;4.20;;;18.80;99.90;;;;;;4976513;28;20240;-76
2021/06/30 08:55:06;;;;;;;4.60;4.20;;;18.80;99.90;;;;;;4973514;28;20197;-76
2021/06/30 08:57:33;;;;;;;5.38;4.43;;;18.70;99.90;;;;;;4970500;28;20240;-76
2021/06/30 09:00:00;;;;;;;4.85;4.45;;;18.70;99.90;;;;;;4970025;28;20204;-76
2021/06/30 09:02:28;;;;;;;4.53;4.10;;;18.80;99.90;;;;;;4970026;28;20208;-76
2021/06/30 09:05:11;;;;;;;4.50;4.05;;;18.90;99.90;;;;;;4969653;28;20228;-76
2021/06/30 09:07:39;;;;;;;4.93;4.50;;;18.90;99.90;;;;;;4972007;28;20217;-76
2021/06/30 09:10:07;;;;;;;4.72;4.32;;;18.80;99.90;;;;;;4974961;28;20201;-76
2021/06/30 09:12:39;;;;;;;4.88;4.47;;;18.90;99.90;;;;;;4969442;28;20281;-76
2021/06/30 09:15:17;;;;;;;5.85;4.53;;;19.00;99.90;;;;;;4969650;28;20263;-76
2021/06/30 09:17:46;;;;;;;7.10;5.45;;;19.00;99.90;;;;;;4969615;28;20238;-76
2021/06/30 09:20:14;;;;;;;7.30;4.53;;;19.10;99.90;;;;;;4970608;28;20212;-76
2021/06/30 09:22:51;;;;;;;7.03;5.28;;;19.10;99.90;;;;;;4968687;28;20590;-76
2021/06/30 09:25:30;;;;;;;5.55;4.43;;;19.10;99.90;;;;;;4969112;28;20232;-76
2021/06/30 09:27:58;;;;;;;6.30;4.03;;;19.20;99.90;;;;;;4969960;28;20266;-76
2021/06/30 09:30:25;;;;;;;6.82;3.70;;;19.30;99.90;;;;;;4974888;28;20259;-76
2021/06/30 09:33:01;;;;;;;4.70;2.60;;;19.50;99.90;;;;;;4969469;28;20200;-76
2021/06/30 09:35:32;;;;;;;6.50;4.07;;;19.50;99.90;;;;;;4969647;28;20204;-76
2021/06/30 09:38:29;;;;;;;7.13;5.18;;;19.50;99.90;;;;;;4969354;28;20228;-76
2021/06/30 09:40:56;;;;;;;5.50;4.40;;;19.40;99.90;;;;;;4972005;28;20219;-76
2021/06/30 09:43:25;;;;;;;7.93;5.45;;;19.40;99.90;;;;;;4969637;28;20228;-76
2021/06/30 09:45:52;;;;;;;9.68;6.32;;;19.40;99.90;;;;;;4970838;28;20208;-76
2021/06/30 09:48:31;;;;;;;13.25;6.70;;;19.30;99.90;;;;;;4972615;28;20203;-76
2021/06/30 09:50:59;;;;;;;10.43;7.47;;;19.30;99.90;;;;;;4972943;28;20228;-76
2021/06/30 09:53:35;;;;;;;8.93;6.40;;;19.30;99.90;;;;;;4968818;28;20317;-76
2021/06/30 09:58:59;;;;;;;8.25;5.78;;;19.10;99.90;;;;;;4974749;28;20208;-76
2021/06/30 10:05:02;;;;;;;5.10;4.55;;;19.10;99.90;;;;;;5107964;27;20591;-75
2021/06/30 10:07:30;;;;;;;8.02;5.00;;;19.10;99.90;;;;;;5102374;28;20204;-75
2021/06/30 10:10:02;;;;;;;5.72;4.88;;;18.90;99.90;;;;;;5103316;28;20204;-75
2021/06/30 10:12:30;;;;;;;4.22;3.83;;;18.70;99.90;;;;;;5112926;28;20196;-75
2021/06/30 10:14:58;;;;;;;4.63;4.20;;;18.70;99.90;;;;;;5101825;28;20281;-75
2021/06/30 10:17:25;;;;;;;7.28;4.70;;;18.70;99.90;;;;;;5103189;28;20197;-75
2021/06/30 10:19:55;;;;;;;4.40;3.80;;;18.60;99.90;;;;;;5103247;28;20204;-76
2021/06/30 10:22:26;;;;;;;3.80;3.38;;;18.40;99.90;;;;;;5113294;28;20201;-75
2021/06/30 10:24:57;;;;;;;6.18;3.95;;;18.40;99.90;;;;;;5102212;28;20278;-76
2021/06/30 10:27:25;;;;;;;6.40;4.85;;;18.40;99.90;;;;;;5107229;28;20578;-76
2021/06/30 10:29:54;;;;;;;6.75;4.95;;;18.40;99.90;;;;;;5102763;28;20201;-76
2021/06/30 10:32:22;;;;;;;6.05;5.13;;;18.50;99.90;;;;;;5103305;28;20197;-76
2021/06/30 10:34:51;;;;;;;5.35;4.85;;;18.60;99.90;;;;;;5102490;28;20200;-76
2021/06/30 10:37:21;;;;;;;5.32;4.60;;;18.70;99.90;;;;;;5103456;28;20227;-76
2021/06/30 10:39:53;;;;;;;20.08;8.82;;;18.80;99.90;;;;;;5103379;28;20200;-76
2021/06/30 10:42:30;;;;;;;3.25;3.00;;;18.80;99.90;;;;;;5102400;28;20675;-76
2021/06/30 10:44:58;;;;;;;3.85;3.30;;;18.80;99.90;;;;;;5105486;28;20225;-75
2021/06/30 10:47:40;;;;;;;3.30;3.00;;;18.70;99.90;;;;;;5104346;28;20305;-76
2021/06/30 10:50:28;;;;;;;2.72;2.53;;;18.80;99.90;;;;;;5103704;28;20265;-76
2021/06/30 10:52:57;;;;;;;3.05;2.85;;;18.80;99.90;;;;;;5103547;28;20206;-75
2021/06/30 10:55:51;;;;;;;4.97;3.40;;;18.70;99.90;;;;;;5102918;28;20201;-76
2021/06/30 10:58:24;;;;;;;5.07;3.20;;;18.60;99.90;;;;;;5115276;28;20258;-76
2021/06/30 11:00:52;;;;;;;4.60;4.10;;;18.70;99.90;;;;;;5107170;28;20509;-75
2021/06/30 11:03:29;;;;;;;3.83;3.47;;;18.70;99.90;;;;;;5103822;28;20292;-76
2021/06/30 11:06:24;;;;;;;6.32;4.20;;;18.70;99.90;;;;;;5111606;28;20258;-76
2021/06/30 11:11:55;;;;;;;6.65;5.13;;;18.80;99.90;;;;;;5100508;28;20205;-77
2021/06/30 11:14:41;;;;;;;6.45;4.78;;;18.90;99.90;;;;;;5102274;28;20203;-76
2021/06/30 11:17:08;;;;;;;7.53;5.15;;;19.00;99.90;;;;;;5091500;28;20201;-77
2021/06/30 11:19:42;;;;;;;7.22;4.68;;;19.10;99.90;;;;;;5087951;28;20214;-76
2021/06/30 11:22:29;;;;;;;11.63;5.78;;;19.30;99.90;;;;;;5088176;28;20242;-76
2021/06/30 11:24:57;;;;;;;9.75;5.55;;;19.30;99.90;;;;;;5088865;28;20233;-75
2021/06/30 11:27:46;;;;;;;10.57;5.68;;;19.30;99.90;;;;;;5088180;28;20205;-76
2021/06/30 11:30:35;;;;;;;9.65;5.03;;;19.20;99.90;;;;;;5092126;28;20250;-75
2021/06/30 11:33:03;;;;;;;7.88;4.32;;;19.20;99.90;;;;;;5087016;28;20201;-75
2021/06/30 11:35:34;;;;;;;6.30;5.30;;;19.10;99.90;;;;;;5087833;28;20228;-76
2021/06/30 11:38:23;;;;;;;6.30;4.40;;;19.10;99.90;;;;;;5094768;28;20205;-75
2021/06/30 11:41:01;;;;;;;11.80;4.88;;;19.10;99.90;;;;;;5093946;28;20232;-75
2021/06/30 11:43:31;;;;;;;6.10;4.57;;;19.20;99.90;;;;;;5087804;28;20252;-75
2021/06/30 11:46:04;;;;;;;5.40;4.57;;;19.10;99.90;;;;;;5096474;28;20211;-76
2021/06/30 11:48:32;;;;;;;5.93;4.90;;;19.00;99.90;;;;;;5092333;28;20870;-76
2021/06/30 11:51:00;;;;;;;5.35;4.38;;;19.00;99.90;;;;;;5095336;28;20197;-75
2021/06/30 11:53:44;;;;;;;8.55;5.68;;;19.00;99.90;;;;;;5101501;28;20204;-75
2021/06/30 11:56:14;;;;;;;6.32;5.18;;;19.00;99.90;;;;;;5098452;28;20201;-76
2021/06/30 11:58:51;;;;;;;8.02;5.68;;;19.00;99.90;;;;;;5099407;28;20514;-76
2021/06/30 12:01:28;;;;;;;7.75;6.30;;;19.00;99.90;;;;;;5094348;28;20288;-75
2021/06/30 12:04:27;;;;;;;8.45;6.57;;;18.90;99.90;;;;;;5086006;28;20890;-75
2021/06/30 12:06:57;;;;;;;5.00;4.43;;;19.00;99.90;;;;;;5067130;28;20238;-75
2021/06/30 12:09:26;;;;;;;6.70;4.82;;;19.00;99.90;;;;;;5070479;28;20202;-76
2021/06/30 12:11:57;;;;;;;5.40;4.90;;;18.90;99.90;;;;;;5064257;28;20203;-76
2021/06/30 12:14:26;;;;;;;5.55;5.03;;;18.80;99.90;;;;;;5069395;28;20202;-76
2021/06/30 12:16:58;;;;;;;6.00;5.40;;;18.70;99.90;;;;;;5073477;28;20233;-76
2021/06/30 12:19:35;;;;;;;5.97;5.38;;;18.60;99.90;;;;;;5067323;28;20288;-76
2021/06/30 12:22:25;;;;;;;7.63;6.13;;;18.60;99.90;;;;;;5064529;28;20206;-76
2021/06/30 12:24:55;;;;;;;8.70;6.78;;;18.60;99.90;;;;;;5069354;28;20221;-75
2021/06/30 12:27:23;;;;;;;11.93;7.75;;;18.60;99.90;;;;;;5064316;28;20207;-76
2021/06/30 12:29:57;;;;;;;12.95;8.52;;;18.60;99.90;;;;;;5064173;28;20201;-76
2021/06/30 12:32:25;;;;;;;9.30;7.18;;;18.50;99.90;;;;;;5066864;28;20552;-76
2021/06/30 12:34:52;;;;;;;10.32;7.38;;;18.50;99.90;;;;;;5065557;28;20229;-76
2021/06/30 12:37:23;;;;;;;13.18;8.07;;;18.50;99.90;;;;;;5079136;28;20211;-76
2021/06/30 12:39:56;;;;;;;11.77;8.05;;;18.50;99.90;;;;;;5063937;28;20206;-76
2021/06/30 12:42:23;;;;;;;11.60;7.82;;;18.60;99.90;;;;;;5086249;28;20205;-76
2021/06/30 12:44:57;;;;;;;12.18;9.05;;;18.60;99.90;;;;;;5085621;28;20449;-75
2021/06/30 12:47:26;;;;;;;10.98;8.23;;;18.60;99.90;;;;;;5087123;28;20193;-75
2021/06/30 12:49:58;;;;;;;12.38;8.75;;;18.70;99.90;;;;;;5089422;28;20200;-76
2021/06/30 12:52:25;;;;;;;14.15;9.25;;;18.70;99.90;;;;;;5092632;28;20206;-76
2021/06/30 12:58:04;;;;;;;11.73;9.70;;;18.90;99.90;;;;;;5091493;28;20658;-77
2021/06/30 13:00:33;;;;;;;12.88;8.05;;;18.90;99.90;;;;;;5086307;28;20235;-77
2021/06/30 13:03:11;;;;;;;12.77;9.23;;;18.80;99.90;;;;;;5086932;28;20260;-77
2021/06/30 13:05:42;;;;;;;11.40;8.15;;;18.70;99.90;;;;;;5085491;28;20303;-77
2021/06/30 13:08:32;;;;;;;11.25;8.45;;;18.70;99.90;;;;;;5087706;28;20225;-77
2021/06/30 13:11:11;;;;;;;12.45;8.55;;;18.70;99.90;;;;;;5090558;28;20200;-77
2021/06/30 13:13:55;;;;;;;10.32;8.07;;;18.70;99.90;;;;;;5089079;28;20286;-77
2021/06/30 13:16:24;;;;;;;13.93;9.32;;;18.70;99.90;;;;;;5091603;28;20204;-77
2021/06/30 13:19:00;;;;;;;18.38;9.75;;;18.80;99.90;;;;;;5087729;28;20200;-77
2021/06/30 13:21:29;;;;;;;11.55;8.55;;;18.70;99.90;;;;;;5086664;28;20194;-77
2021/06/30 13:23:59;;;;;;;12.65;8.95;;;18.70;99.90;;;;;;5086390;28;20236;-77
2021/06/30 13:27:07;;;;;;;15.52;9.85;;;18.70;99.90;;;;;;5085631;28;20196;-77
2021/06/30 13:30:05;;;;;;;12.85;9.23;;;18.70;99.90;;;;;;5090219;28;20194;-77
2021/06/30 13:38:06;;;;;;;16.33;10.65;;;18.90;99.90;;;;;;5092063;28;20194;-77
2021/06/30 13:40:43;;;;;;;14.80;10.25;;;18.90;99.90;;;;;;5088464;28;20258;-77
2021/06/30 13:48:52;;;;;;;19.08;11.77;;;19.10;99.90;;;;;;5084854;28;20684;-77
2021/06/30 13:51:20;;;;;;;17.00;11.77;;;19.10;99.90;;;;;;5093254;28;20204;-77
2021/06/30 14:01:50;;;;;;;15.90;9.80;;;19.40;99.90;;;;;;5087055;28;20234;-77